sensor_id;sensor_type;location;lat;lon;timestamp;pressure;altitude;pressure_sealevel;temperature;humidity
46782;BME280;32541;46.298;11.506;2023-02-26T00:00:04;87663.19;;;3.41;47.50
46782;BME280;32541;46.298;11.506;2023-02-26T00:02:32;87672.25;;;3.24;47.21
46782;BME280;32541;46.298;11.506;2023-02-26T00:04:57;87670.97;;;3.25;46.61
46782;BME280;32541;46.298;11.506;2023-02-26T00:07:23;87664.88;;;3.15;46.80
46782;BME280;32541;46.298;11.506;2023-02-26T00:09:53;87667.25;;;3.00;46.84
46782;BME280;32541;46.298;11.506;2023-02-26T00:12:19;87669.84;;;2.88;46.58
46782;BME280;32541;46.298;11.506;2023-02-26T00:14:45;87678.16;;;2.80;46.56
46782;BME280;32541;46.298;11.506;2023-02-26T00:17:40;87692.03;;;2.75;46.72
46782;BME280;32541;46.298;11.506;2023-02-26T00:20:08;87684.66;;;2.66;46.08
46782;BME280;32541;46.298;11.506;2023-02-26T00:22:34;87688.81;;;2.57;46.92
46782;BME280;32541;46.298;11.506;2023-02-26T00:25:00;87685.50;;;2.59;46.99
46782;BME280;32541;46.298;11.506;2023-02-26T00:27:26;87685.09;;;2.53;47.09
46782;BME280;32541;46.298;11.506;2023-02-26T00:29:51;87689.13;;;2.52;46.66
46782;BME280;32541;46.298;11.506;2023-02-26T00:32:17;87688.97;;;2.50;46.52
46782;BME280;32541;46.298;11.506;2023-02-26T00:34:44;87706.53;;;2.49;46.25
46782;BME280;32541;46.298;11.506;2023-02-26T00:37:22;87711.38;;;2.41;45.82
46782;BME280;32541;46.298;11.506;2023-02-26T00:42:32;87718.72;;;2.29;45.56
46782;BME280;32541;46.298;11.506;2023-02-26T00:44:57;87723.00;;;2.32;45.86
46782;BME280;32541;46.298;11.506;2023-02-26T00:47:32;87726.69;;;2.27;45.65
46782;BME280;32541;46.298;11.506;2023-02-26T00:50:05;87716.84;;;2.12;45.32
46782;BME280;32541;46.298;11.506;2023-02-26T00:52:52;87726.25;;;2.20;45.05
46782;BME280;32541;46.298;11.506;2023-02-26T00:55:22;87716.00;;;2.19;45.15
46782;BME280;32541;46.298;11.506;2023-02-26T00:57:47;87712.56;;;2.28;45.53
46782;BME280;32541;46.298;11.506;2023-02-26T01:00:14;87720.41;;;2.24;45.14
46782;BME280;32541;46.298;11.506;2023-02-26T01:02:40;87729.56;;;2.29;45.49
46782;BME280;32541;46.298;11.506;2023-02-26T01:05:06;87733.25;;;2.23;45.42
46782;BME280;32541;46.298;11.506;2023-02-26T01:07:43;87728.41;;;2.32;45.30
46782;BME280;32541;46.298;11.506;2023-02-26T01:10:11;87728.25;;;2.30;44.62
46782;BME280;32541;46.298;11.506;2023-02-26T01:12:38;87737.28;;;2.22;44.57
46782;BME280;32541;46.298;11.506;2023-02-26T01:15:05;87732.28;;;2.19;44.00
46782;BME280;32541;46.298;11.506;2023-02-26T01:20:11;87724.69;;;2.08;44.15
46782;BME280;32541;46.298;11.506;2023-02-26T01:22:43;87727.13;;;2.04;44.35
46782;BME280;32541;46.298;11.506;2023-02-26T01:25:13;87724.25;;;2.11;44.42
46782;BME280;32541;46.298;11.506;2023-02-26T01:27:40;87728.53;;;2.14;44.20
46782;BME280;32541;46.298;11.506;2023-02-26T01:30:07;87729.13;;;2.22;43.61
46782;BME280;32541;46.298;11.506;2023-02-26T01:32:50;87743.09;;;2.09;43.58
46782;BME280;32541;46.298;11.506;2023-02-26T01:38:24;87723.41;;;2.09;43.76
46782;BME280;32541;46.298;11.506;2023-02-26T01:43:48;87729.13;;;2.13;43.50
46782;BME280;32541;46.298;11.506;2023-02-26T01:49:16;87725.72;;;2.22;42.99
46782;BME280;32541;46.298;11.506;2023-02-26T01:54:15;87733.13;;;2.31;42.99
46782;BME280;32541;46.298;11.506;2023-02-26T01:56:42;87726.25;;;2.30;42.86
46782;BME280;32541;46.298;11.506;2023-02-26T01:59:13;87737.97;;;2.33;42.73
46782;BME280;32541;46.298;11.506;2023-02-26T02:01:39;87725.41;;;2.28;42.37
46782;BME280;32541;46.298;11.506;2023-02-26T02:04:12;87731.84;;;2.22;42.19
46782;BME280;32541;46.298;11.506;2023-02-26T02:06:38;87733.41;;;2.16;42.04
46782;BME280;32541;46.298;11.506;2023-02-26T02:09:05;87733.13;;;2.12;41.91
46782;BME280;32541;46.298;11.506;2023-02-26T02:11:31;87733.53;;;2.08;41.72
46782;BME280;32541;46.298;11.506;2023-02-26T02:14:15;87734.97;;;2.09;42.21
46782;BME280;32541;46.298;11.506;2023-02-26T02:22:34;87737.13;;;1.92;41.87
46782;BME280;32541;46.298;11.506;2023-02-26T02:31:14;87732.81;;;2.08;41.78
46782;BME280;32541;46.298;11.506;2023-02-26T02:33:53;87730.81;;;2.08;41.33
46782;BME280;32541;46.298;11.506;2023-02-26T02:39:02;87713.28;;;2.09;40.45
46782;BME280;32541;46.298;11.506;2023-02-26T02:41:44;87721.28;;;2.07;41.02
46782;BME280;32541;46.298;11.506;2023-02-26T02:44:13;87728.41;;;2.12;40.78
46782;BME280;32541;46.298;11.506;2023-02-26T02:46:42;87723.84;;;2.05;40.90
46782;BME280;32541;46.298;11.506;2023-02-26T02:49:17;87724.56;;;1.96;40.90
46782;BME280;32541;46.298;11.506;2023-02-26T02:51:54;87725.41;;;1.89;39.27
46782;BME280;32541;46.298;11.506;2023-02-26T02:54:39;87737.13;;;1.92;40.76
46782;BME280;32541;46.298;11.506;2023-02-26T02:57:21;87745.09;;;1.90;40.71
46782;BME280;32541;46.298;11.506;2023-02-26T02:59:56;87750.66;;;1.82;39.66
46782;BME280;32541;46.298;11.506;2023-02-26T03:04:55;87766.91;;;1.82;40.85
46782;BME280;32541;46.298;11.506;2023-02-26T03:07:21;87763.94;;;1.78;39.97
46782;BME280;32541;46.298;11.506;2023-02-26T03:09:46;87756.22;;;1.84;39.66
46782;BME280;32541;46.298;11.506;2023-02-26T03:12:12;87751.50;;;1.85;40.73
46782;BME280;32541;46.298;11.506;2023-02-26T03:14:38;87751.94;;;1.81;39.03
46782;BME280;32541;46.298;11.506;2023-02-26T03:17:32;87772.88;;;1.71;38.44
46782;BME280;32541;46.298;11.506;2023-02-26T03:26:23;87768.75;;;1.70;38.14
46782;BME280;32541;46.298;11.506;2023-02-26T03:28:39;87777.16;;;1.74;40.05
46782;BME280;32541;46.298;11.506;2023-02-26T03:31:59;87775.63;;;1.81;38.93
46782;BME280;32541;46.298;11.506;2023-02-26T03:34:23;87783.84;;;1.63;38.03
46782;BME280;32541;46.298;11.506;2023-02-26T03:36:56;87794.69;;;1.73;38.17
46782;BME280;32541;46.298;11.506;2023-02-26T03:39:34;87777.16;;;1.64;37.51
46782;BME280;32541;46.298;11.506;2023-02-26T03:42:10;87786.00;;;1.65;37.62
46782;BME280;32541;46.298;11.506;2023-02-26T03:44:53;87775.72;;;1.73;37.74
46782;BME280;32541;46.298;11.506;2023-02-26T03:47:21;87781.25;;;1.56;36.75
46782;BME280;32541;46.298;11.506;2023-02-26T03:49:50;87777.56;;;1.61;36.15
46782;BME280;32541;46.298;11.506;2023-02-26T03:52:20;87783.16;;;1.63;36.81
46782;BME280;32541;46.298;11.506;2023-02-26T03:54:52;87782.13;;;1.58;35.82
46782;BME280;32541;46.298;11.506;2023-02-26T03:57:19;87789.69;;;1.60;35.04
46782;BME280;32541;46.298;11.506;2023-02-26T03:59:44;87782.28;;;1.70;34.52
46782;BME280;32541;46.298;11.506;2023-02-26T04:02:17;87782.16;;;1.68;33.54
46782;BME280;32541;46.298;11.506;2023-02-26T04:07:10;87771.44;;;1.60;32.94
46782;BME280;32541;46.298;11.506;2023-02-26T04:09:40;87769.84;;;1.48;32.69
46782;BME280;32541;46.298;11.506;2023-02-26T04:12:06;87764.44;;;1.48;32.99
46782;BME280;32541;46.298;11.506;2023-02-26T04:14:31;87758.28;;;1.38;32.10
46782;BME280;32541;46.298;11.506;2023-02-26T04:16:56;87768.41;;;1.47;34.06
46782;BME280;32541;46.298;11.506;2023-02-26T04:19:22;87769.84;;;1.48;32.73
46782;BME280;32541;46.298;11.506;2023-02-26T04:21:47;87771.44;;;1.51;31.91
46782;BME280;32541;46.298;11.506;2023-02-26T04:24:12;87775.81;;;1.46;32.00
46782;BME280;32541;46.298;11.506;2023-02-26T04:26:38;87771.56;;;1.53;32.06
46782;BME280;32541;46.298;11.506;2023-02-26T04:29:03;87766.84;;;1.44;32.00
46782;BME280;32541;46.298;11.506;2023-02-26T04:31:29;87781.66;;;1.43;32.43
46782;BME280;32541;46.298;11.506;2023-02-26T04:33:54;87785.78;;;1.44;33.88
46782;BME280;32541;46.298;11.506;2023-02-26T04:36:19;87778.66;;;1.39;34.24
46782;BME280;32541;46.298;11.506;2023-02-26T04:38:45;87766.06;;;1.24;33.52
46782;BME280;32541;46.298;11.506;2023-02-26T04:41:10;87780.63;;;1.29;33.93
46782;BME280;32541;46.298;11.506;2023-02-26T04:43:36;87781.59;;;1.24;33.50
46782;BME280;32541;46.298;11.506;2023-02-26T04:46:02;87779.03;;;1.26;35.36
46782;BME280;32541;46.298;11.506;2023-02-26T04:48:28;87786.66;;;1.10;34.81
46782;BME280;32541;46.298;11.506;2023-02-26T04:50:53;87773.72;;;1.08;35.05
46782;BME280;32541;46.298;11.506;2023-02-26T04:53:19;87778.97;;;1.06;32.84
46782;BME280;32541;46.298;11.506;2023-02-26T04:55:47;87795.09;;;1.14;33.88
46782;BME280;32541;46.298;11.506;2023-02-26T04:58:12;87802.56;;;0.96;34.97
46782;BME280;32541;46.298;11.506;2023-02-26T05:00:37;87808.78;;;0.89;35.58
46782;BME280;32541;46.298;11.506;2023-02-26T05:03:03;87801.69;;;0.94;35.50
46782;BME280;32541;46.298;11.506;2023-02-26T05:05:28;87804.50;;;0.86;35.36
46782;BME280;32541;46.298;11.506;2023-02-26T05:07:54;87816.59;;;0.85;36.21
46782;BME280;32541;46.298;11.506;2023-02-26T05:10:21;87833.56;;;0.86;35.24
46782;BME280;32541;46.298;11.506;2023-02-26T05:12:46;87828.88;;;0.69;35.85
46782;BME280;32541;46.298;11.506;2023-02-26T05:15:11;87828.59;;;0.65;35.71
46782;BME280;32541;46.298;11.506;2023-02-26T05:17:37;87817.06;;;0.65;36.11
46782;BME280;32541;46.298;11.506;2023-02-26T05:20:03;87830.84;;;0.59;35.30
46782;BME280;32541;46.298;11.506;2023-02-26T05:22:29;87836.72;;;0.65;36.26
46782;BME280;32541;46.298;11.506;2023-02-26T05:24:54;87838.28;;;0.68;36.34
46782;BME280;32541;46.298;11.506;2023-02-26T05:27:19;87839.09;;;0.61;36.46
46782;BME280;32541;46.298;11.506;2023-02-26T05:29:45;87833.06;;;0.53;36.57
46782;BME280;32541;46.298;11.506;2023-02-26T05:32:10;87836.53;;;0.63;36.26
46782;BME280;32541;46.298;11.506;2023-02-26T05:34:36;87837.69;;;0.43;36.24
46782;BME280;32541;46.298;11.506;2023-02-26T05:37:01;87836.31;;;0.51;36.19
46782;BME280;32541;46.298;11.506;2023-02-26T05:39:27;87835.13;;;0.45;36.07
46782;BME280;32541;46.298;11.506;2023-02-26T05:41:52;87838.78;;;0.57;36.06
46782;BME280;32541;46.298;11.506;2023-02-26T05:44:20;87841.50;;;0.40;36.59
46782;BME280;32541;46.298;11.506;2023-02-26T05:46:45;87836.59;;;0.29;36.81
46782;BME280;32541;46.298;11.506;2023-02-26T05:49:11;87836.66;;;0.38;36.81
46782;BME280;32541;46.298;11.506;2023-02-26T05:51:36;87842.94;;;0.41;36.95
46782;BME280;32541;46.298;11.506;2023-02-26T05:54:02;87839.59;;;0.33;36.68
46782;BME280;32541;46.298;11.506;2023-02-26T05:56:28;87842.38;;;0.42;36.72
46782;BME280;32541;46.298;11.506;2023-02-26T05:58:53;87852.56;;;0.34;37.22
46782;BME280;32541;46.298;11.506;2023-02-26T06:01:18;87854.66;;;0.26;36.59
46782;BME280;32541;46.298;11.506;2023-02-26T06:03:44;87860.97;;;0.21;36.92
46782;BME280;32541;46.298;11.506;2023-02-26T06:06:11;87866.31;;;0.29;36.55
46782;BME280;32541;46.298;11.506;2023-02-26T06:08:36;87852.47;;;0.25;36.11
46782;BME280;32541;46.298;11.506;2023-02-26T06:11:03;87856.47;;;0.24;36.02
46782;BME280;32541;46.298;11.506;2023-02-26T06:13:29;87853.44;;;0.20;35.36
46782;BME280;32541;46.298;11.506;2023-02-26T06:15:54;87867.28;;;0.24;36.00
46782;BME280;32541;46.298;11.506;2023-02-26T06:18:19;87874.91;;;0.18;35.06
46782;BME280;32541;46.298;11.506;2023-02-26T06:20:45;87876.81;;;0.08;35.36
46782;BME280;32541;46.298;11.506;2023-02-26T06:23:10;87867.34;;;0.16;36.10
46782;BME280;32541;46.298;11.506;2023-02-26T06:25:36;87886.84;;;0.15;36.31
46782;BME280;32541;46.298;11.506;2023-02-26T06:28:01;87876.50;;;0.21;36.82
46782;BME280;32541;46.298;11.506;2023-02-26T06:30:26;87878.00;;;0.14;36.39
46782;BME280;32541;46.298;11.506;2023-02-26T06:32:52;87886.66;;;0.13;36.24
46782;BME280;32541;46.298;11.506;2023-02-26T06:35:17;87884.44;;;0.02;35.86
46782;BME280;32541;46.298;11.506;2023-02-26T06:37:43;87890.41;;;0.00;35.77
46782;BME280;32541;46.298;11.506;2023-02-26T06:40:09;87888.56;;;0.03;36.54
46782;BME280;32541;46.298;11.506;2023-02-26T06:42:35;87896.69;;;0.03;35.41
46782;BME280;32541;46.298;11.506;2023-02-26T06:45:01;87895.09;;;-0.01;35.15
46782;BME280;32541;46.298;11.506;2023-02-26T06:47:26;87891.91;;;0.11;35.19
46782;BME280;32541;46.298;11.506;2023-02-26T06:49:51;87908.91;;;0.04;35.08
46782;BME280;32541;46.298;11.506;2023-02-26T06:52:17;87917.97;;;0.16;35.52
46782;BME280;32541;46.298;11.506;2023-02-26T06:54:42;87911.22;;;0.07;35.80
46782;BME280;32541;46.298;11.506;2023-02-26T06:57:07;87912.88;;;0.03;35.80
46782;BME280;32541;46.298;11.506;2023-02-26T06:59:33;87913.84;;;0.15;35.15
46782;BME280;32541;46.298;11.506;2023-02-26T07:01:58;87921.69;;;0.03;35.33
46782;BME280;32541;46.298;11.506;2023-02-26T07:04:24;87925.78;;;0.12;35.32
46782;BME280;32541;46.298;11.506;2023-02-26T07:06:49;87923.47;;;0.08;35.41
46782;BME280;32541;46.298;11.506;2023-02-26T07:09:14;87930.47;;;0.11;35.56
46782;BME280;32541;46.298;11.506;2023-02-26T07:11:40;87941.66;;;0.08;35.09
46782;BME280;32541;46.298;11.506;2023-02-26T07:14:05;87941.81;;;0.10;35.94
46782;BME280;32541;46.298;11.506;2023-02-26T07:16:30;87952.47;;;0.25;35.79
46782;BME280;32541;46.298;11.506;2023-02-26T07:18:56;87946.69;;;0.28;35.56
46782;BME280;32541;46.298;11.506;2023-02-26T07:21:21;87940.31;;;0.16;35.38
46782;BME280;32541;46.298;11.506;2023-02-26T07:23:47;87933.91;;;0.29;36.33
46782;BME280;32541;46.298;11.506;2023-02-26T07:26:12;87944.31;;;0.32;34.32
46782;BME280;32541;46.298;11.506;2023-02-26T07:28:37;87941.81;;;0.27;35.15
46782;BME280;32541;46.298;11.506;2023-02-26T07:31:03;87958.16;;;0.36;35.06
46782;BME280;32541;46.298;11.506;2023-02-26T07:33:28;87949.72;;;1.45;32.51
46782;BME280;32541;46.298;11.506;2023-02-26T07:35:56;87952.41;;;1.45;32.10
46782;BME280;32541;46.298;11.506;2023-02-26T07:38:21;87979.69;;;1.30;31.40
46782;BME280;32541;46.298;11.506;2023-02-26T07:40:47;87974.81;;;2.08;31.85
46782;BME280;32541;46.298;11.506;2023-02-26T07:43:12;87973.63;;;2.29;31.31
46782;BME280;32541;46.298;11.506;2023-02-26T07:45:37;87977.53;;;1.55;31.92
46782;BME280;32541;46.298;11.506;2023-02-26T07:48:03;87976.19;;;1.20;32.76
46782;BME280;32541;46.298;11.506;2023-02-26T07:50:28;87988.78;;;0.90;32.45
46782;BME280;32541;46.298;11.506;2023-02-26T07:52:54;87986.47;;;0.87;33.45
46782;BME280;32541;46.298;11.506;2023-02-26T07:55:20;87978.84;;;0.76;33.62
46782;BME280;32541;46.298;11.506;2023-02-26T07:57:46;87979.72;;;0.61;34.45
46782;BME280;32541;46.298;11.506;2023-02-26T08:00:12;87975.75;;;0.62;33.86
46782;BME280;32541;46.298;11.506;2023-02-26T08:02:38;87983.78;;;0.52;34.81
46782;BME280;32541;46.298;11.506;2023-02-26T08:05:03;87970.34;;;0.79;32.66
46782;BME280;32541;46.298;11.506;2023-02-26T08:07:29;87940.59;;;1.23;32.94
46782;BME280;32541;46.298;11.506;2023-02-26T08:09:56;87917.97;;;1.55;33.65
46782;BME280;32541;46.298;11.506;2023-02-26T08:12:21;87929.38;;;1.53;32.26
46782;BME280;32541;46.298;11.506;2023-02-26T08:14:47;87932.28;;;1.65;31.47
46782;BME280;32541;46.298;11.506;2023-02-26T08:17:12;87939.94;;;1.59;31.34
46782;BME280;32541;46.298;11.506;2023-02-26T08:19:38;87954.88;;;1.77;30.99
46782;BME280;32541;46.298;11.506;2023-02-26T08:22:03;87948.00;;;1.76;31.71
46782;BME280;32541;46.298;11.506;2023-02-26T08:24:29;87935.78;;;1.58;30.84
46782;BME280;32541;46.298;11.506;2023-02-26T08:26:54;87958.25;;;1.68;30.56
46782;BME280;32541;46.298;11.506;2023-02-26T08:29:21;87964.38;;;1.68;31.10
46782;BME280;32541;46.298;11.506;2023-02-26T08:31:46;87963.59;;;1.85;31.25
46782;BME280;32541;46.298;11.506;2023-02-26T08:34:12;87960.19;;;1.58;30.18
46782;BME280;32541;46.298;11.506;2023-02-26T08:36:38;87962.38;;;1.69;30.25
46782;BME280;32541;46.298;11.506;2023-02-26T08:39:04;87971.72;;;1.85;30.04
46782;BME280;32541;46.298;11.506;2023-02-26T08:41:31;87965.09;;;2.05;30.32
46782;BME280;32541;46.298;11.506;2023-02-26T08:44:00;87970.97;;;2.11;29.96
46782;BME280;32541;46.298;11.506;2023-02-26T08:46:26;87984.16;;;2.24;29.65
46782;BME280;32541;46.298;11.506;2023-02-26T08:48:52;87974.28;;;2.19;29.79
46782;BME280;32541;46.298;11.506;2023-02-26T08:51:20;87977.56;;;2.64;29.62
46782;BME280;32541;46.298;11.506;2023-02-26T08:53:45;87974.16;;;3.11;29.64
46782;BME280;32541;46.298;11.506;2023-02-26T08:56:12;87967.88;;;3.47;29.14
46782;BME280;32541;46.298;11.506;2023-02-26T08:58:38;87969.13;;;3.56;28.61
46782;BME280;32541;46.298;11.506;2023-02-26T09:01:03;87973.94;;;3.86;28.84
46782;BME280;32541;46.298;11.506;2023-02-26T09:03:29;87970.09;;;3.79;27.85
46782;BME280;32541;46.298;11.506;2023-02-26T09:05:55;87969.94;;;3.87;27.57
46782;BME280;32541;46.298;11.506;2023-02-26T09:08:20;87955.88;;;4.00;28.05
46782;BME280;32541;46.298;11.506;2023-02-26T09:10:46;87946.97;;;3.50;27.78
46782;BME280;32541;46.298;11.506;2023-02-26T09:13:12;87959.72;;;2.99;28.26
46782;BME280;32541;46.298;11.506;2023-02-26T09:15:37;87968.03;;;3.20;28.26
46782;BME280;32541;46.298;11.506;2023-02-26T09:18:03;87977.16;;;3.15;29.17
46782;BME280;32541;46.298;11.506;2023-02-26T09:20:29;87973.44;;;3.49;29.58
46782;BME280;32541;46.298;11.506;2023-02-26T09:22:54;87981.03;;;3.41;29.88
46782;BME280;32541;46.298;11.506;2023-02-26T09:25:20;87970.84;;;3.51;29.64
46782;BME280;32541;46.298;11.506;2023-02-26T09:27:45;87976.50;;;3.84;29.76
46782;BME280;32541;46.298;11.506;2023-02-26T09:30:11;87981.44;;;3.38;29.09
46782;BME280;32541;46.298;11.506;2023-02-26T09:32:37;87981.28;;;3.64;30.30
46782;BME280;32541;46.298;11.506;2023-02-26T09:35:03;87976.97;;;3.71;30.52
46782;BME280;32541;46.298;11.506;2023-02-26T09:37:29;87980.69;;;3.75;31.72
46782;BME280;32541;46.298;11.506;2023-02-26T09:39:55;87979.97;;;3.75;31.07
46782;BME280;32541;46.298;11.506;2023-02-26T09:42:55;87979.09;;;3.91;30.87
46782;BME280;32541;46.298;11.506;2023-02-26T09:45:28;87969.84;;;3.56;30.58
46782;BME280;32541;46.298;11.506;2023-02-26T09:47:55;87980.00;;;3.56;31.38
46782;BME280;32541;46.298;11.506;2023-02-26T09:50:24;87969.56;;;3.33;31.67
46782;BME280;32541;46.298;11.506;2023-02-26T09:53:16;87981.00;;;3.12;30.87
46782;BME280;32541;46.298;11.506;2023-02-26T09:55:44;87982.59;;;3.06;31.62
46782;BME280;32541;46.298;11.506;2023-02-26T09:58:29;87998.47;;;3.19;31.79
46782;BME280;32541;46.298;11.506;2023-02-26T10:14:39;88009.94;;;2.16;32.03
46782;BME280;32541;46.298;11.506;2023-02-26T10:19:44;88033.50;;;2.13;32.89
46782;BME280;32541;46.298;11.506;2023-02-26T10:22:15;88019.47;;;2.07;32.83
46782;BME280;32541;46.298;11.506;2023-02-26T10:24:53;88033.28;;;1.75;33.00
46782;BME280;32541;46.298;11.506;2023-02-26T10:27:34;88045.75;;;1.88;33.56
46782;BME280;32541;46.298;11.506;2023-02-26T10:30:24;88048.72;;;1.82;32.67
46782;BME280;32541;46.298;11.506;2023-02-26T10:33:06;88052.56;;;1.79;32.99
46782;BME280;32541;46.298;11.506;2023-02-26T10:35:41;88073.63;;;1.71;32.78
46782;BME280;32541;46.298;11.506;2023-02-26T10:38:15;88073.72;;;1.90;32.83
46782;BME280;32541;46.298;11.506;2023-02-26T10:43:10;88078.88;;;1.69;32.49
46782;BME280;32541;46.298;11.506;2023-02-26T10:45:52;88075.16;;;1.47;32.87
46782;BME280;32541;46.298;11.506;2023-02-26T10:51:17;88084.72;;;1.31;32.65
46782;BME280;32541;46.298;11.506;2023-02-26T10:53:48;88085.03;;;1.35;33.08
46782;BME280;32541;46.298;11.506;2023-02-26T10:56:19;88080.84;;;1.25;32.20
46782;BME280;32541;46.298;11.506;2023-02-26T10:58:46;88085.03;;;1.35;32.81
46782;BME280;32541;46.298;11.506;2023-02-26T11:01:21;88082.97;;;1.26;32.49
46782;BME280;32541;46.298;11.506;2023-02-26T11:03:55;88091.19;;;1.36;32.79
46782;BME280;32541;46.298;11.506;2023-02-26T11:06:26;88078.91;;;1.35;32.56
46782;BME280;32541;46.298;11.506;2023-02-26T11:08:54;88088.13;;;1.49;32.76
46782;BME280;32541;46.298;11.506;2023-02-26T11:14:10;88089.72;;;1.35;32.74
46782;BME280;32541;46.298;11.506;2023-02-26T11:16:44;88094.50;;;1.61;32.44
46782;BME280;32541;46.298;11.506;2023-02-26T11:19:11;88093.53;;;1.49;32.27
46782;BME280;32541;46.298;11.506;2023-02-26T11:21:39;88077.94;;;1.57;32.05
46782;BME280;32541;46.298;11.506;2023-02-26T11:24:32;88078.56;;;1.65;32.15
46782;BME280;32541;46.298;11.506;2023-02-26T11:27:00;88085.81;;;1.62;32.42
46782;BME280;32541;46.298;11.506;2023-02-26T11:29:34;88080.38;;;1.80;32.42
46782;BME280;32541;46.298;11.506;2023-02-26T11:32:02;88070.16;;;1.88;31.80
46782;BME280;32541;46.298;11.506;2023-02-26T11:34:28;88068.47;;;1.92;32.46
46782;BME280;32541;46.298;11.506;2023-02-26T11:36:55;88078.03;;;2.20;31.85
46782;BME280;32541;46.298;11.506;2023-02-26T11:39:25;88071.59;;;2.15;31.77
46782;BME280;32541;46.298;11.506;2023-02-26T11:41:55;88065.91;;;2.21;31.54
46782;BME280;32541;46.298;11.506;2023-02-26T11:44:38;88065.91;;;2.21;32.03
46782;BME280;32541;46.298;11.506;2023-02-26T11:47:15;88069.88;;;2.20;30.93
46782;BME280;32541;46.298;11.506;2023-02-26T11:49:51;88074.50;;;2.27;31.87
46782;BME280;32541;46.298;11.506;2023-02-26T11:52:27;88071.38;;;2.31;31.08
46782;BME280;32541;46.298;11.506;2023-02-26T11:54:59;88069.88;;;2.20;31.32
46782;BME280;32541;46.298;11.506;2023-02-26T11:57:27;88063.97;;;2.04;31.72
46782;BME280;32541;46.298;11.506;2023-02-26T11:59:54;88065.09;;;2.28;31.78
46782;BME280;32541;46.298;11.506;2023-02-26T12:02:24;88072.78;;;2.22;31.10
46782;BME280;32541;46.298;11.506;2023-02-26T12:04:56;88064.69;;;2.32;31.18
46782;BME280;32541;46.298;11.506;2023-02-26T12:07:23;88067.94;;;2.30;32.31
46782;BME280;32541;46.298;11.506;2023-02-26T12:09:48;88071.84;;;2.37;31.64
46782;BME280;32541;46.298;11.506;2023-02-26T12:23:00;88064.25;;;2.08;32.27
46782;BME280;32541;46.298;11.506;2023-02-26T12:31:30;88069.34;;;2.21;32.40
46782;BME280;32541;46.298;11.506;2023-02-26T12:54:19;88087.44;;;1.48;33.01
46782;BME280;32541;46.298;11.506;2023-02-26T12:57:10;88087.44;;;1.48;32.77
46782;BME280;32541;46.298;11.506;2023-02-26T13:07:51;88105.34;;;1.27;33.73
46782;BME280;32541;46.298;11.506;2023-02-26T13:13:29;88102.31;;;1.23;33.78
46782;BME280;32541;46.298;11.506;2023-02-26T13:18:50;88104.28;;;0.88;33.70
46782;BME280;32541;46.298;11.506;2023-02-26T13:21:27;88103.94;;;0.84;34.25
46782;BME280;32541;46.298;11.506;2023-02-26T13:26:27;88107.31;;;0.92;33.64
46782;BME280;32541;46.298;11.506;2023-02-26T13:29:04;88124.41;;;0.94;34.01
46782;BME280;32541;46.298;11.506;2023-02-26T13:34:03;88126.31;;;0.84;34.49
46782;BME280;32541;46.298;11.506;2023-02-26T13:36:30;88118.34;;;0.86;34.14
46782;BME280;32541;46.298;11.506;2023-02-26T13:42:06;88133.47;;;0.89;35.04
46782;BME280;32541;46.298;11.506;2023-02-26T13:48:04;88153.44;;;0.77;35.10
46782;BME280;32541;46.298;11.506;2023-02-26T13:56:22;88157.81;;;0.89;36.08
46782;BME280;32541;46.298;11.506;2023-02-26T14:10:02;88174.66;;;0.80;36.98
46782;BME280;32541;46.298;11.506;2023-02-26T14:12:41;88175.44;;;0.73;37.11
46782;BME280;32541;46.298;11.506;2023-02-26T14:20:24;88192.44;;;0.91;37.03
46782;BME280;32541;46.298;11.506;2023-02-26T14:23:12;88205.22;;;0.98;36.99
46782;BME280;32541;46.298;11.506;2023-02-26T14:25:47;88205.91;;;0.98;37.19
46782;BME280;32541;46.298;11.506;2023-02-26T14:31:13;88207.53;;;1.01;37.58
46782;BME280;32541;46.298;11.506;2023-02-26T14:36:20;88208.63;;;0.98;37.93
46782;BME280;32541;46.298;11.506;2023-02-26T14:38:49;88221.78;;;1.02;37.55
46782;BME280;32541;46.298;11.506;2023-02-26T14:41:32;88210.00;;;1.07;37.62
46782;BME280;32541;46.298;11.506;2023-02-26T14:44:16;88218.41;;;1.19;37.98
46782;BME280;32541;46.298;11.506;2023-02-26T14:46:42;88211.88;;;1.22;37.49
46782;BME280;32541;46.298;11.506;2023-02-26T14:49:17;88213.50;;;1.42;37.79
46782;BME280;32541;46.298;11.506;2023-02-26T14:57:43;88212.53;;;1.30;36.74
46782;BME280;32541;46.298;11.506;2023-02-26T15:00:34;88220.03;;;1.39;37.40
46782;BME280;32541;46.298;11.506;2023-02-26T15:06:00;88221.94;;;1.46;36.66
46782;BME280;32541;46.298;11.506;2023-02-26T15:19:40;88228.94;;;1.07;36.27
46782;BME280;32541;46.298;11.506;2023-02-26T15:22:15;88232.56;;;1.09;36.58
46782;BME280;32541;46.298;11.506;2023-02-26T15:24:46;88237.03;;;1.15;36.66
46782;BME280;32541;46.298;11.506;2023-02-26T15:27:16;88242.28;;;1.13;36.22
46782;BME280;32541;46.298;11.506;2023-02-26T15:29:43;88244.81;;;1.10;36.09
46782;BME280;32541;46.298;11.506;2023-02-26T15:32:26;88241.78;;;1.06;36.12
46782;BME280;32541;46.298;11.506;2023-02-26T15:37:26;88241.88;;;0.91;36.56
46782;BME280;32541;46.298;11.506;2023-02-26T15:39:52;88249.22;;;0.98;36.67
46782;BME280;32541;46.298;11.506;2023-02-26T15:42:20;88244.75;;;0.93;41.54
46782;BME280;32541;46.298;11.506;2023-02-26T15:44:46;88255.69;;;1.03;36.48
46782;BME280;32541;46.298;11.506;2023-02-26T15:47:15;88250.16;;;0.93;36.76
46782;BME280;32541;46.298;11.506;2023-02-26T15:49:44;88254.13;;;0.92;36.57
46782;BME280;32541;46.298;11.506;2023-02-26T15:52:18;88259.38;;;0.90;36.70
46782;BME280;32541;46.298;11.506;2023-02-26T15:54:49;88265.66;;;0.68;36.93
46782;BME280;32541;46.298;11.506;2023-02-26T15:57:17;88262.75;;;0.66;37.27
46782;BME280;32541;46.298;11.506;2023-02-26T15:59:48;88272.16;;;0.65;37.00
46782;BME280;32541;46.298;11.506;2023-02-26T16:02:18;88266.41;;;0.61;37.23
46782;BME280;32541;46.298;11.506;2023-02-26T16:04:44;88262.50;;;0.47;36.64
46782;BME280;32541;46.298;11.506;2023-02-26T16:07:10;88279.47;;;0.47;37.22
46782;BME280;32541;46.298;11.506;2023-02-26T16:09:43;88286.84;;;0.47;36.42